Aeroporto :
LOGIN :

Iscrizione | Disclaimer

   EN    FR    IT 

 










Sommario :    VFR   VFR Marginale   IFR   IFR Intensivo   IFR Molto Intensivo
Visibilità : 
Base nubi : 
>= 8 km
>= 3000ft
5 / 8 km
1000 / 3000 ft
1500m / 5 km
500 / 1000 ft
800 / 1500m
200 / 500 ft
< 800m
< 200 ft
Simboli :   Temporali  Nebbia  Neve Forte  Precipitazioni Forti  Vento > 20 kt
SIGMETs :   Varie  Temporali  Ghiacco  Turbolenza  Onda orograficha  Ceneri Vulcaniche







- Altitudine del aeroporto : 526 ft
- Codice IATA : LTN
- Carte del aeroporto


EGGW - London Luton

ULTIMO METAR :
  • 260520Z AUTO 19006KT 150V220 4200 BR OVC002 07/07 Q1007

METARs OBSOLETI :
  • 260450Z AUTO 18005KT 150V210 1300 R26/1400 BR VV/// 07/07 Q1007
  • 260420Z AUTO 20005KT 0550 R26/0800 FG VV/// 07/07 Q1007
  • 260350Z AUTO 21005KT 170V230 0300 R26/1000 FG VV/// 07/07 Q1007
  • 260320Z AUTO 20004KT 150V220 0300 R26/0800 FG VV/// 07/07 Q1007
  • 260250Z AUTO 22005KT 0150 R26/0650 FG VV/// 07/06 Q1006

TAF TAF EGGW
Valido dal 26 a 06 ore il 27 a 06 ore UTC


260509Z 2606/2706 17007KT 3500 BR OVC002
BECMG 2606/2608 9999 NSW FEW020
TEMPO 2608/2621 9000 -SHRA
PROB30
TEMPO 2608/2617 SHRA BKN012CB
BECMG 2612/2615 23012KT
BECMG 2620/2623 17012KT
TEMPO 2621/2624 19015G25KT 8000 RA SHRA BKN008
BECMG 2700/2703 20020G30KT
BECMG 2703/2706 23020G30KT
TEMPO 2703/2706 6000 SHRA BKN008
ATIS : +44 1582 395 204
Nessun NOTAM noto per questo aeroporto.



MetMap, La meteo Aeronautica in un colpo d'occhio ! - Copyright ORBIFLY Dicembre 2007 - Disclaimer

ORBIFLY MET'MAP TEAM :

Programmazione e sviluppo : Alexandra Zaïnal
Concezione e sviluppo : Baudouin d'Aumeries
Co-Programmazione e sviluppo : Marc-Olivier Méhu
Supporto tecnico e logistico : Manuel Goepfert
Aiuto per la traduzione : Arnaldo La Scala

Contatto : metmap@orbifly.com




FONTI E CREDITI :

   NOAA